createdAt,value
2018-01-24T00:00:06.723Z,20.57
2018-01-24T00:02:37.974Z,21.40
2018-01-24T00:05:05.524Z,20.03
2018-01-24T00:07:34.311Z,17.63
2018-01-24T00:10:01.877Z,23.77
2018-01-24T00:12:29.439Z,15.87
2018-01-24T00:14:56.995Z,18.97
2018-01-24T00:17:25.184Z,18.00
2018-01-24T00:19:53.585Z,19.43
2018-01-24T00:22:21.204Z,24.13
2018-01-24T00:24:49.482Z,23.80
2018-01-24T00:27:17.353Z,21.87
2018-01-24T00:29:44.909Z,21.27
2018-01-24T00:32:12.467Z,28.23
2018-01-24T00:34:40.030Z,28.07
2018-01-24T00:37:07.536Z,31.87
2018-01-24T00:39:35.456Z,31.57
2018-01-24T00:42:03.220Z,27.77
2018-01-24T00:44:30.779Z,34.60
2018-01-24T00:46:58.290Z,27.60
2018-01-24T00:49:26.103Z,29.40
2018-01-24T00:51:53.560Z,32.60
2018-01-24T00:54:21.126Z,32.47
2018-01-24T00:56:48.679Z,31.47
2018-01-24T00:59:16.238Z,32.70
2018-01-24T01:01:43.797Z,39.40
2018-01-24T01:04:11.358Z,43.33
2018-01-24T01:06:38.912Z,33.33
2018-01-24T01:09:06.407Z,34.70
2018-01-24T01:11:33.931Z,31.10
2018-01-24T01:14:01.488Z,35.83
2018-01-24T01:16:29.047Z,31.50
2018-01-24T01:18:56.607Z,32.77
2018-01-24T01:21:24.173Z,37.57
2018-01-24T01:23:55.623Z,35.60
2018-01-24T01:26:23.177Z,40.43
2018-01-24T01:28:50.735Z,31.07
2018-01-24T01:31:18.198Z,35.53
2018-01-24T01:33:49.545Z,35.50
2018-01-24T01:36:17.207Z,39.87
2018-01-24T01:38:44.934Z,41.77
2018-01-24T01:41:16.217Z,36.60
2018-01-24T01:43:44.704Z,38.77
2018-01-24T01:46:12.872Z,31.20
2018-01-24T01:48:40.534Z,38.00
2018-01-24T01:51:08.093Z,33.73
2018-01-24T01:53:35.567Z,40.47
2018-01-24T01:56:03.214Z,31.47
2018-01-24T01:58:30.771Z,41.77
2018-01-24T02:00:58.327Z,30.27
2018-01-24T02:03:25.989Z,29.80
2018-01-24T02:05:53.551Z,31.20
2018-01-24T02:08:20.960Z,35.63
2018-01-24T02:10:48.397Z,30.00
2018-01-24T02:13:15.959Z,37.37
2018-01-24T02:15:43.478Z,31.13
2018-01-24T02:18:11.142Z,43.00
2018-01-24T02:20:39.114Z,44.77
2018-01-24T02:23:06.875Z,37.50
2018-01-24T02:25:38.281Z,31.13
2018-01-24T02:28:06.703Z,30.03
2018-01-24T02:33:07.521Z,28.00
2018-01-24T02:35:35.123Z,32.83
2018-01-24T02:38:02.675Z,32.30
2018-01-24T02:40:30.645Z,27.20
2018-01-24T02:42:58.414Z,30.90
2018-01-24T02:45:25.977Z,37.30
2018-01-24T02:47:55.375Z,29.10
2018-01-24T02:50:23.036Z,37.90
2018-01-24T02:52:52.570Z,28.53
2018-01-24T02:55:20.101Z,28.23
2018-01-24T02:57:47.970Z,34.47
2018-01-24T03:00:16.547Z,27.47
2018-01-24T03:02:48.004Z,28.17
2018-01-24T03:07:47.624Z,31.17
2018-01-24T03:10:15.185Z,25.87
2018-01-24T03:12:42.747Z,32.73
2018-01-24T03:15:10.713Z,28.70
2018-01-24T03:17:39.128Z,29.77
2018-01-24T03:20:07.063Z,28.97
2018-01-24T03:22:34.724Z,28.33
2018-01-24T03:25:02.285Z,24.13
2018-01-24T03:27:29.842Z,25.70
2018-01-24T03:29:57.402Z,27.83
2018-01-24T03:32:25.575Z,31.10
2018-01-24T03:34:53.153Z,22.00
2018-01-24T03:37:20.899Z,27.27
2018-01-24T03:39:49.376Z,23.60
2018-01-24T03:42:16.939Z,21.60
2018-01-24T03:47:16.257Z,22.27
2018-01-24T03:49:43.816Z,23.63
2018-01-24T03:52:11.708Z,19.77
2018-01-24T03:54:39.341Z,21.90
2018-01-24T03:57:06.909Z,20.60
2018-01-24T03:59:34.402Z,18.90
2018-01-24T04:02:02.433Z,25.00
2018-01-24T04:04:30.724Z,25.10
2018-01-24T04:07:00.022Z,20.30
2018-01-24T04:09:27.517Z,19.90
2018-01-24T04:11:55.025Z,21.33
2018-01-24T04:14:23.302Z,17.73
2018-01-24T04:16:50.862Z,15.70
2018-01-24T04:19:18.421Z,26.70
2018-01-24T04:21:47.721Z,16.67
2018-01-24T04:24:15.586Z,23.83
2018-01-24T04:26:43.454Z,18.87
2018-01-24T04:29:12.755Z,17.60
2018-01-24T04:31:40.256Z,25.30
2018-01-24T04:34:09.818Z,17.40
2018-01-24T04:36:37.662Z,15.90
2018-01-24T04:39:06.883Z,18.60
2018-01-24T04:41:34.376Z,22.40
2018-01-24T04:44:01.900Z,17.37
2018-01-24T04:46:29.669Z,17.60
2018-01-24T04:48:57.226Z,18.00
2018-01-24T04:51:24.787Z,17.03
2018-01-24T04:53:52.547Z,17.67
2018-01-24T04:56:20.104Z,13.57
2018-01-24T04:58:47.666Z,15.67
2018-01-24T05:01:15.227Z,14.40
2018-01-24T05:03:42.989Z,20.93
2018-01-24T05:06:12.583Z,14.23
2018-01-24T05:08:40.154Z,21.30
2018-01-24T05:11:09.592Z,15.93
2018-01-24T05:13:37.478Z,17.17
2018-01-24T05:16:06.256Z,17.60
2018-01-24T05:18:34.183Z,14.87
2018-01-24T05:21:13.621Z,17.43
2018-01-24T05:23:41.183Z,20.70
2018-01-24T05:26:08.775Z,16.40
2018-01-24T05:28:37.032Z,14.73
2018-01-24T05:31:04.572Z,15.80
2018-01-24T05:33:32.132Z,16.67
2018-01-24T05:35:59.698Z,18.80
2018-01-24T05:38:27.198Z,21.23
2018-01-24T05:40:54.747Z,15.10
2018-01-24T05:43:22.220Z,18.70
2018-01-24T05:45:49.731Z,18.17
2018-01-24T05:48:17.293Z,23.20
2018-01-24T05:50:45.053Z,22.93
2018-01-24T05:53:12.610Z,27.00
2018-01-24T05:55:40.169Z,19.60
2018-01-24T05:58:07.671Z,18.17
2018-01-24T06:00:35.290Z,19.07
2018-01-24T06:03:03.668Z,21.57
2018-01-24T06:05:31.530Z,22.80
2018-01-24T06:07:59.097Z,21.20
2018-01-24T06:10:27.497Z,29.13
2018-01-24T06:12:55.039Z,24.17
2018-01-24T06:15:22.590Z,24.43
2018-01-24T06:17:50.795Z,19.83
2018-01-24T06:20:18.423Z,27.97
2018-01-24T06:22:50.071Z,24.73
2018-01-24T06:25:17.640Z,23.23
2018-01-24T06:27:45.116Z,24.80
2018-01-24T06:30:12.636Z,23.60
2018-01-24T06:32:40.180Z,23.97
2018-01-24T06:35:07.635Z,26.53
2018-01-24T06:37:35.238Z,25.90
2018-01-24T06:40:03.238Z,24.20
2018-01-24T06:42:30.864Z,21.87
2018-01-24T06:44:58.422Z,23.17
2018-01-24T06:47:26.326Z,25.10
2018-01-24T06:49:53.851Z,25.50
2018-01-24T06:52:21.408Z,20.33
2018-01-24T06:54:48.859Z,25.57
2018-01-24T06:57:20.112Z,25.33
2018-01-24T06:59:47.670Z,22.10
2018-01-24T07:02:15.611Z,26.33
2018-01-24T07:04:43.446Z,27.13
2018-01-24T07:07:11.067Z,22.63
2018-01-24T07:09:38.559Z,20.83
2018-01-24T07:12:12.130Z,20.60
2018-01-24T07:14:41.151Z,20.50
2018-01-24T07:17:08.784Z,21.67
2018-01-24T07:19:36.268Z,22.43
2018-01-24T07:22:03.727Z,26.20
2018-01-24T07:24:31.184Z,28.80
2018-01-24T07:26:58.628Z,21.07
2018-01-24T07:29:26.167Z,20.60
2018-01-24T07:31:53.656Z,20.63
2018-01-24T07:34:21.182Z,17.40
2018-01-24T07:36:48.739Z,20.40
2018-01-24T07:39:16.302Z,23.60
2018-01-24T07:41:43.704Z,19.73
2018-01-24T07:44:11.259Z,19.83
2018-01-24T07:46:38.875Z,19.30
2018-01-24T07:49:06.336Z,18.10
2018-01-24T07:51:34.022Z,23.70
2018-01-24T07:54:01.554Z,17.70
2018-01-24T07:56:29.113Z,18.73
2018-01-24T07:58:56.673Z,16.20
2018-01-24T08:01:24.232Z,16.33
2018-01-24T08:03:51.735Z,18.27
2018-01-24T08:06:19.145Z,16.43
2018-01-24T08:08:46.637Z,15.23
2018-01-24T08:11:14.264Z,13.27
2018-01-24T08:13:41.756Z,20.60
2018-01-24T08:16:09.282Z,17.80
2018-01-24T08:18:36.842Z,14.87
2018-01-24T08:21:04.503Z,16.77
2018-01-24T08:23:32.062Z,14.00
2018-01-24T08:25:59.621Z,15.60
2018-01-24T08:28:27.020Z,12.67
2018-01-24T08:30:54.536Z,14.40
2018-01-24T08:33:22.095Z,10.60
2018-01-24T08:35:49.654Z,11.73
2018-01-24T08:38:17.147Z,11.80
2018-01-24T08:40:44.671Z,11.60
2018-01-24T08:43:12.229Z,13.00
2018-01-24T08:45:39.894Z,13.07
2018-01-24T08:48:07.455Z,11.80
2018-01-24T08:50:34.856Z,14.23
2018-01-24T08:53:02.365Z,11.93
2018-01-24T08:55:29.823Z,24.13
2018-01-24T08:57:57.382Z,11.50
2018-01-24T09:00:24.942Z,14.13
2018-01-24T09:02:52.398Z,13.47
2018-01-24T09:05:20.070Z,10.90
2018-01-24T09:07:47.620Z,12.40
2018-01-24T09:10:15.181Z,14.73
2018-01-24T09:12:42.780Z,15.47
2018-01-24T09:15:10.196Z,15.93
2018-01-24T09:17:37.755Z,10.43
2018-01-24T09:20:05.436Z,14.37
2018-01-24T09:22:32.977Z,12.27
2018-01-24T09:25:00.384Z,10.83
2018-01-24T09:27:27.993Z,12.67
2018-01-24T09:29:55.555Z,11.13
2018-01-24T09:32:23.316Z,12.63
2018-01-24T09:34:50.809Z,10.63
2018-01-24T09:37:18.334Z,11.07
2018-01-24T09:39:45.893Z,12.33
2018-01-24T09:42:13.384Z,11.03
2018-01-24T09:44:40.842Z,10.67
2018-01-24T09:47:08.366Z,11.47
2018-01-24T09:49:35.945Z,11.00
2018-01-24T09:52:03.484Z,12.80
2018-01-24T09:54:31.045Z,11.93
2018-01-24T09:56:58.476Z,10.87
2018-01-24T09:59:25.903Z,9.30
2018-01-24T10:01:53.348Z,9.93
2018-01-24T10:04:21.008Z,7.80
2018-01-24T10:06:48.533Z,8.97
2018-01-24T10:09:16.031Z,15.97
2018-01-24T10:11:43.449Z,9.23
2018-01-24T10:14:10.956Z,9.30
2018-01-24T10:16:38.566Z,8.67
2018-01-24T10:19:06.127Z,9.30
2018-01-24T10:21:33.686Z,9.90
2018-01-24T10:24:01.188Z,10.07
2018-01-24T10:26:28.805Z,10.07
2018-01-24T10:28:56.373Z,8.97
2018-01-24T10:31:24.437Z,12.13
2018-01-24T10:33:51.893Z,13.37
2018-01-24T10:36:19.451Z,8.00
2018-01-24T10:38:46.945Z,7.33
2018-01-24T10:41:14.336Z,7.13
2018-01-24T10:43:41.925Z,8.70
2018-01-24T10:46:09.486Z,6.00
2018-01-24T10:48:36.978Z,6.60
2018-01-24T10:51:04.504Z,7.27
2018-01-24T10:53:32.066Z,5.10
2018-01-24T10:55:59.620Z,5.57
2018-01-24T10:58:27.180Z,5.67
2018-01-24T11:00:54.943Z,8.73
2018-01-24T11:03:22.402Z,7.23
2018-01-24T11:05:49.863Z,8.13
2018-01-24T11:08:17.522Z,7.77
2018-01-24T11:10:45.112Z,6.17
2018-01-24T11:13:12.568Z,6.40
2018-01-24T11:15:40.096Z,4.50
2018-01-24T11:18:07.655Z,4.50
2018-01-24T11:20:35.112Z,4.87
2018-01-24T11:23:02.557Z,8.53
2018-01-24T11:25:30.128Z,8.63
2018-01-24T11:27:57.624Z,5.00
2018-01-24T11:30:25.019Z,5.50
2018-01-24T11:32:52.500Z,7.93
2018-01-24T11:35:19.991Z,5.00
2018-01-24T11:37:47.519Z,6.00
2018-01-24T11:40:14.957Z,5.40
2018-01-24T11:42:42.532Z,6.77
2018-01-24T11:45:10.092Z,5.60
2018-01-24T11:47:37.884Z,5.40
2018-01-24T11:50:05.519Z,5.10
2018-01-24T11:52:32.911Z,5.50
2018-01-24T11:55:00.433Z,4.73
2018-01-24T11:57:28.047Z,5.20
2018-01-24T11:59:55.440Z,5.77
2018-01-24T12:02:23.007Z,6.73
2018-01-24T12:04:50.501Z,6.23
2018-01-24T12:07:19.154Z,7.37
2018-01-24T12:09:46.745Z,6.60
2018-01-24T12:12:14.270Z,8.40
2018-01-24T12:14:41.684Z,6.87
2018-01-24T12:17:09.119Z,6.73
2018-01-24T12:19:36.745Z,7.30
2018-01-24T12:22:04.303Z,6.57
2018-01-24T12:24:31.709Z,5.17
2018-01-24T12:26:59.160Z,5.47
2018-01-24T12:29:26.775Z,5.77
2018-01-24T12:31:54.338Z,7.00
2018-01-24T12:34:21.736Z,4.80
2018-01-24T12:36:49.249Z,8.20
2018-01-24T12:39:16.810Z,6.00
2018-01-24T12:41:44.265Z,6.57
2018-01-24T12:44:11.756Z,5.87
2018-01-24T12:46:39.211Z,5.17
2018-01-24T12:49:06.669Z,4.40
2018-01-24T12:51:34.503Z,4.53
2018-01-24T12:54:02.065Z,4.03
2018-01-24T12:56:29.559Z,3.90
2018-01-24T12:58:57.011Z,4.33
2018-01-24T13:01:24.467Z,4.40
2018-01-24T13:03:51.994Z,4.53
2018-01-24T13:06:19.656Z,6.30
2018-01-24T13:08:47.316Z,4.33
2018-01-24T13:11:14.878Z,4.87
2018-01-24T13:13:42.284Z,3.80
2018-01-24T13:16:09.791Z,4.13
2018-01-24T13:18:37.304Z,3.40
2018-01-24T13:21:04.909Z,4.47
2018-01-24T13:23:32.410Z,4.33
2018-01-24T13:26:00.131Z,4.93
2018-01-24T13:28:27.691Z,4.00
2018-01-24T13:30:55.180Z,3.40
2018-01-24T13:33:22.706Z,3.83
2018-01-24T13:35:50.266Z,4.60
2018-01-24T13:38:17.928Z,4.60
2018-01-24T13:40:46.307Z,5.10
2018-01-24T13:43:13.826Z,3.73
2018-01-24T13:45:41.324Z,3.27
2018-01-24T13:48:08.883Z,4.70
2018-01-24T13:50:36.442Z,5.20
2018-01-24T13:53:03.886Z,5.03
2018-01-24T13:55:31.392Z,3.20
2018-01-24T13:57:58.786Z,4.20
2018-01-24T14:00:26.415Z,3.20
2018-01-24T14:02:53.960Z,4.10
2018-01-24T14:05:21.540Z,4.73
2018-01-24T14:07:49.154Z,4.10
2018-01-24T14:10:16.713Z,4.40
2018-01-24T14:12:44.217Z,4.60
2018-01-24T14:15:11.681Z,3.60
2018-01-24T14:17:39.187Z,3.77
2018-01-24T14:20:06.868Z,4.00
2018-01-24T14:22:34.408Z,4.10
2018-01-24T14:25:01.973Z,3.80
2018-01-24T14:27:29.630Z,4.40
2018-01-24T14:29:57.126Z,3.97
2018-01-24T14:32:24.656Z,4.27
2018-01-24T14:34:52.205Z,5.30
2018-01-24T14:37:19.712Z,4.40
2018-01-24T14:39:47.329Z,6.40
2018-01-24T14:42:14.986Z,4.77
2018-01-24T14:44:42.443Z,3.90
2018-01-24T14:47:10.001Z,9.87
2018-01-24T14:49:37.512Z,14.87
2018-01-24T14:52:05.223Z,5.13
2018-01-24T14:54:32.786Z,10.70
2018-01-24T14:57:00.344Z,7.60
2018-01-24T14:59:27.937Z,12.70
2018-01-24T15:01:55.372Z,11.50
2018-01-24T15:04:22.817Z,7.47
2018-01-24T15:06:50.227Z,8.63
2018-01-24T15:09:17.734Z,7.03
2018-01-24T15:11:45.393Z,6.60
2018-01-24T15:14:12.952Z,4.80
2018-01-24T15:16:40.408Z,6.63
2018-01-24T15:19:08.685Z,6.67
2018-01-24T15:21:36.175Z,6.90
2018-01-24T15:24:03.640Z,8.63
2018-01-24T15:26:31.260Z,6.90
2018-01-24T15:28:58.956Z,4.60
2018-01-24T15:31:26.481Z,4.10
2018-01-24T15:33:54.004Z,4.10
2018-01-24T15:36:21.601Z,4.27
2018-01-24T15:38:49.029Z,4.60
2018-01-24T15:41:16.514Z,4.10
2018-01-24T15:43:44.074Z,3.90
2018-01-24T15:46:11.736Z,3.30
2018-01-24T15:48:39.295Z,3.47
2018-01-24T15:51:06.855Z,4.50
2018-01-24T15:53:34.618Z,5.90
2018-01-24T15:56:02.108Z,4.30
2018-01-24T15:58:29.638Z,5.60
2018-01-24T16:00:57.197Z,4.07
2018-01-24T16:03:24.598Z,6.33
2018-01-24T16:05:52.211Z,4.77
2018-01-24T16:08:19.770Z,5.23
2018-01-24T16:10:47.331Z,5.70
2018-01-24T16:13:15.001Z,3.77
2018-01-24T16:15:42.551Z,4.00
2018-01-24T16:18:10.044Z,4.10
2018-01-24T16:20:37.567Z,6.90
2018-01-24T16:23:05.127Z,4.63
2018-01-24T16:25:32.687Z,3.87
2018-01-24T16:28:00.450Z,3.17
2018-01-24T16:30:28.013Z,3.93
2018-01-24T16:32:55.574Z,5.43
2018-01-24T16:35:23.129Z,4.07
2018-01-24T16:37:50.697Z,5.60
2018-01-24T16:40:18.249Z,3.93
2018-01-24T16:42:45.743Z,6.33
2018-01-24T16:45:13.300Z,5.00
2018-01-24T16:47:40.756Z,4.10
2018-01-24T16:50:08.389Z,3.90
2018-01-24T16:52:35.945Z,5.70
2018-01-24T16:55:03.436Z,3.80
2018-01-24T16:57:30.900Z,3.27
2018-01-24T16:59:58.535Z,4.17
2018-01-24T17:02:26.132Z,3.60
2018-01-24T17:04:53.645Z,3.67
2018-01-24T17:07:21.141Z,3.30
2018-01-24T17:09:48.654Z,4.17
2018-01-24T17:12:16.214Z,3.20
2018-01-24T17:14:43.773Z,3.77
2018-01-24T17:17:11.339Z,3.13
2018-01-24T17:19:38.892Z,3.27
2018-01-24T17:22:06.384Z,3.53
2018-01-24T17:24:33.909Z,3.33
2018-01-24T17:27:01.408Z,3.93
2018-01-24T17:29:28.927Z,2.80
2018-01-24T17:31:56.460Z,3.47
2018-01-24T17:34:24.147Z,4.70
2018-01-24T17:36:51.641Z,3.43
2018-01-24T17:39:19.162Z,4.93
2018-01-24T17:41:46.628Z,3.60
2018-01-24T17:44:14.183Z,3.73
2018-01-24T17:46:41.644Z,3.20
2018-01-24T17:49:09.196Z,3.70
2018-01-24T17:51:36.755Z,4.00
2018-01-24T17:54:04.213Z,5.20
2018-01-24T17:56:31.770Z,5.07
2018-01-24T17:58:59.334Z,14.37
2018-01-24T18:01:26.824Z,15.87
2018-01-24T18:03:54.552Z,18.97
2018-01-24T18:06:22.112Z,15.73
2018-01-24T18:08:49.508Z,16.93
2018-01-24T18:11:17.026Z,7.70
2018-01-24T18:13:44.585Z,7.43
2018-01-24T18:16:12.147Z,5.27
2018-01-24T18:18:39.609Z,4.93
2018-01-24T18:21:07.092Z,5.47
2018-01-24T18:23:34.481Z,5.73
2018-01-24T18:26:01.904Z,3.77
2018-01-24T18:28:29.537Z,5.87
2018-01-24T18:30:57.024Z,5.07
2018-01-24T18:33:24.447Z,5.03
2018-01-24T18:35:51.954Z,4.17
2018-01-24T18:38:19.565Z,5.40
2018-01-24T18:40:47.022Z,5.20
2018-01-24T18:43:14.704Z,4.00
2018-01-24T18:45:42.244Z,7.20
2018-01-24T18:48:09.747Z,4.40
2018-01-24T18:50:37.180Z,5.73
2018-01-24T18:53:04.717Z,4.70
2018-01-24T18:55:32.224Z,3.80
2018-01-24T18:58:00.041Z,4.57
2018-01-24T19:00:27.600Z,3.97
2018-01-24T19:02:55.057Z,5.23
2018-01-24T19:05:22.620Z,4.10
2018-01-24T19:07:50.178Z,3.93
2018-01-24T19:10:17.695Z,4.93
2018-01-24T19:12:45.232Z,3.60
2018-01-24T19:15:12.700Z,3.70
2018-01-24T19:17:40.154Z,4.50
2018-01-24T19:20:07.669Z,3.50
2018-01-24T19:22:35.229Z,4.80
2018-01-24T19:25:02.664Z,4.70
2018-01-24T19:27:30.177Z,6.57
2018-01-24T19:29:57.599Z,5.80
2018-01-24T19:32:25.032Z,4.50
2018-01-24T19:34:52.665Z,4.97
2018-01-24T19:37:20.173Z,5.23
2018-01-24T19:39:47.664Z,4.83
2018-01-24T19:42:15.293Z,7.40
2018-01-24T19:44:42.785Z,8.77
2018-01-24T19:47:10.310Z,5.40
2018-01-24T19:49:37.808Z,5.50
2018-01-24T19:52:05.430Z,4.93
2018-01-24T19:54:32.828Z,5.63
2018-01-24T19:57:00.277Z,5.53
2018-01-24T19:59:28.108Z,4.40
2018-01-24T20:01:55.511Z,4.23
2018-01-24T20:04:22.955Z,5.43
2018-01-24T20:06:50.423Z,4.17
2018-01-24T20:09:17.833Z,5.00
2018-01-24T20:11:45.504Z,4.60
2018-01-24T20:14:12.896Z,6.77
2018-01-24T20:16:40.407Z,7.20
2018-01-24T20:19:08.068Z,5.17
2018-01-24T20:21:35.731Z,5.57
2018-01-24T20:24:03.221Z,5.57
2018-01-24T20:26:30.748Z,5.90
2018-01-24T20:28:58.307Z,4.63
2018-01-24T20:31:25.800Z,7.60
2018-01-24T20:33:53.426Z,7.40
2018-01-24T20:36:24.671Z,5.97
2018-01-24T20:38:52.164Z,6.30
2018-01-24T20:41:19.587Z,5.50
2018-01-24T20:43:47.146Z,6.20
2018-01-24T20:46:14.576Z,9.07
2018-01-24T20:48:41.984Z,6.60
2018-01-24T20:51:09.624Z,6.80
2018-01-24T20:53:37.402Z,12.57
2018-01-24T20:56:05.259Z,12.60
2018-01-24T20:58:32.811Z,11.00
2018-01-24T21:01:00.577Z,8.13
2018-01-24T21:03:28.076Z,8.50
2018-01-24T21:05:55.824Z,9.07
2018-01-24T21:08:23.280Z,9.10
2018-01-24T21:10:50.811Z,10.23
2018-01-24T21:13:18.373Z,11.53
2018-01-24T21:15:46.032Z,14.00
2018-01-24T21:18:14.013Z,9.37
2018-01-24T21:20:41.608Z,10.50
2018-01-24T21:23:09.056Z,10.40
2018-01-24T21:25:36.597Z,10.40
2018-01-24T21:28:04.368Z,10.80
2018-01-24T21:30:38.044Z,9.63
2018-01-24T21:33:11.488Z,11.30
2018-01-24T21:35:45.133Z,9.40
2018-01-24T21:38:12.641Z,10.63
2018-01-24T21:40:40.072Z,8.60
2018-01-24T21:43:07.579Z,7.80
2018-01-24T21:45:35.079Z,8.07
2018-01-24T21:48:02.737Z,9.73
2018-01-24T21:50:30.294Z,9.70
2018-01-24T21:52:57.794Z,9.70
2018-01-24T21:55:25.249Z,8.47
2018-01-24T21:57:52.680Z,8.90
2018-01-24T22:00:20.225Z,11.10
2018-01-24T22:02:47.784Z,9.67
2018-01-24T22:05:15.452Z,8.80
2018-01-24T22:07:43.010Z,8.83
2018-01-24T22:10:10.568Z,12.17
2018-01-24T22:12:38.125Z,7.23
2018-01-24T22:15:05.684Z,8.10
2018-01-24T22:17:33.244Z,8.70
2018-01-24T22:20:00.804Z,10.33
2018-01-24T22:22:28.257Z,9.37
2018-01-24T22:24:55.757Z,9.77
2018-01-24T22:27:23.277Z,11.83
2018-01-24T22:29:50.837Z,11.70
2018-01-24T22:32:18.395Z,11.90
2018-01-24T22:34:45.954Z,15.70
2018-01-24T22:37:13.519Z,13.20
2018-01-24T22:39:41.074Z,11.47
2018-01-24T22:42:08.633Z,11.10
2018-01-24T22:44:36.193Z,12.23
2018-01-24T22:47:03.752Z,15.13
2018-01-24T22:49:31.246Z,13.20
2018-01-24T22:51:58.873Z,12.20
2018-01-24T22:54:26.431Z,12.43
2018-01-24T22:56:53.849Z,11.77
2018-01-24T22:59:21.447Z,11.70
2018-01-24T23:01:49.006Z,13.73
2018-01-24T23:04:16.771Z,12.60
2018-01-24T23:06:44.271Z,13.77
2018-01-24T23:09:11.789Z,13.50
2018-01-24T23:11:39.346Z,14.30
2018-01-24T23:14:06.905Z,14.37
2018-01-24T23:16:34.364Z,12.13
2018-01-24T23:19:01.921Z,12.33
2018-01-24T23:21:29.529Z,12.57
2018-01-24T23:23:57.150Z,13.60
2018-01-24T23:26:24.600Z,10.40
2018-01-24T23:28:52.263Z,10.17
2018-01-24T23:31:19.924Z,13.83
2018-01-24T23:33:47.485Z,10.97
2018-01-24T23:36:15.046Z,13.73
2018-01-24T23:38:42.705Z,11.10
2018-01-24T23:41:10.267Z,12.57
2018-01-24T23:43:37.831Z,12.23
2018-01-24T23:46:05.236Z,10.60
2018-01-24T23:48:32.742Z,11.17
2018-01-24T23:51:00.298Z,12.87
2018-01-24T23:53:28.062Z,12.30
2018-01-24T23:55:55.622Z,12.93
2018-01-24T23:58:23.114Z,9.90
